createdAt,value
2022-10-15T00:00:32.621Z,55.50
2022-10-15T00:03:42.293Z,55.50
2022-10-15T00:06:50.178Z,55.50
2022-10-15T00:09:59.405Z,55.50
2022-10-15T00:13:07.498Z,55.50
2022-10-15T00:16:16.021Z,55.50
2022-10-15T00:19:23.870Z,55.50
2022-10-15T00:22:32.149Z,55.50
2022-10-15T00:25:42.480Z,55.50
2022-10-15T00:28:51.586Z,55.50
2022-10-15T00:32:03.408Z,55.40
2022-10-15T00:35:11.077Z,55.50
2022-10-15T00:38:19.197Z,55.50
2022-10-15T00:41:29.475Z,55.50
2022-10-15T00:44:52.634Z,55.50
2022-10-15T00:48:00.464Z,55.60
2022-10-15T00:51:08.619Z,55.50
2022-10-15T00:54:17.333Z,55.50
2022-10-15T00:57:26.941Z,55.50
2022-10-15T01:00:36.682Z,55.50
2022-10-15T01:03:44.783Z,55.90
2022-10-15T01:06:52.646Z,55.60
2022-10-15T01:10:00.848Z,55.50
2022-10-15T01:13:13.364Z,55.60
2022-10-15T01:16:25.872Z,55.60
2022-10-15T01:19:47.883Z,55.60
2022-10-15T01:23:03.644Z,55.70
2022-10-15T01:26:26.900Z,55.60
2022-10-15T01:30:02.850Z,55.60
2022-10-15T01:33:18.332Z,55.60
2022-10-15T01:36:28.613Z,55.70
2022-10-15T01:39:39.950Z,55.60
2022-10-15T01:42:52.513Z,55.60
2022-10-15T01:46:03.049Z,55.60
2022-10-15T01:49:34.617Z,55.70
2022-10-15T01:52:44.542Z,55.60
2022-10-15T01:55:52.587Z,55.70
2022-10-15T01:59:00.589Z,55.70
2022-10-15T02:02:09.998Z,55.70
2022-10-15T02:05:24.441Z,55.70
2022-10-15T02:08:38.262Z,55.70
2022-10-15T02:11:51.653Z,55.70
2022-10-15T02:15:01.683Z,55.70
2022-10-15T02:18:11.816Z,55.70
2022-10-15T02:21:23.796Z,55.80
2022-10-15T02:24:35.269Z,55.70
2022-10-15T02:27:46.974Z,55.80
2022-10-15T02:30:55.940Z,55.90
2022-10-15T02:34:07.090Z,55.80
2022-10-15T02:37:20.140Z,55.80
2022-10-15T02:40:29.378Z,55.80
2022-10-15T02:43:38.632Z,55.80
2022-10-15T02:46:46.521Z,55.80
2022-10-15T02:49:56.830Z,55.80
2022-10-15T02:53:06.274Z,55.80
2022-10-15T02:56:15.966Z,55.70
2022-10-15T02:59:24.509Z,55.70
2022-10-15T03:02:32.876Z,55.80
2022-10-15T03:05:40.813Z,55.80
2022-10-15T03:08:52.140Z,55.70
2022-10-15T03:12:00.193Z,55.80
2022-10-15T03:15:09.809Z,55.80
2022-10-15T03:18:17.987Z,55.70
2022-10-15T03:21:28.619Z,55.80
2022-10-15T03:24:43.620Z,55.70
2022-10-15T03:27:52.863Z,55.70
2022-10-15T03:31:07.185Z,56.30
2022-10-15T03:34:15.046Z,55.70
2022-10-15T03:37:23.946Z,55.70
2022-10-15T03:40:33.669Z,55.70
2022-10-15T03:43:54.797Z,55.70
2022-10-15T03:47:02.794Z,55.70
2022-10-15T03:50:20.988Z,55.60
2022-10-15T03:53:29.049Z,55.70
2022-10-15T03:56:39.046Z,55.70
2022-10-15T04:00:09.651Z,55.60
2022-10-15T04:03:20.050Z,55.60
2022-10-15T04:06:28.797Z,55.60
2022-10-15T04:09:36.963Z,55.70
2022-10-15T04:13:04.862Z,55.60
2022-10-15T04:16:15.281Z,55.70
2022-10-15T04:19:23.332Z,55.60
2022-10-15T04:22:40.462Z,55.70
2022-10-15T04:25:52.422Z,55.60
2022-10-15T04:29:01.706Z,55.70
2022-10-15T04:32:12.694Z,55.80
2022-10-15T04:35:21.123Z,55.80
2022-10-15T04:38:51.977Z,55.80
2022-10-15T04:42:18.467Z,55.80
2022-10-15T04:45:27.697Z,55.70
2022-10-15T04:48:38.979Z,55.70
2022-10-15T04:51:52.627Z,55.80
2022-10-15T04:55:10.559Z,55.80
2022-10-15T04:58:20.060Z,55.80
2022-10-15T05:01:29.561Z,55.80
2022-10-15T05:04:43.561Z,55.80
2022-10-15T05:07:51.553Z,55.80
2022-10-15T05:11:01.816Z,55.80
2022-10-15T05:14:10.042Z,55.80
2022-10-15T05:17:21.052Z,55.80
2022-10-15T05:20:29.565Z,55.80
2022-10-15T05:23:38.814Z,55.90
2022-10-15T05:27:02.973Z,55.90
2022-10-15T05:30:13.617Z,56.00
2022-10-15T05:33:34.723Z,56.10
2022-10-15T05:36:42.898Z,56.50
2022-10-15T05:39:50.578Z,56.60
2022-10-15T05:42:58.490Z,56.50
2022-10-15T05:46:07.234Z,56.50
2022-10-15T05:49:17.015Z,56.60
2022-10-15T05:52:31.657Z,56.70
2022-10-15T05:55:59.678Z,57.50
2022-10-15T05:59:12.090Z,57.30
2022-10-15T06:02:20.245Z,57.60
2022-10-15T06:05:29.736Z,57.50
2022-10-15T06:08:37.919Z,57.50
2022-10-15T06:11:45.900Z,57.60
2022-10-15T06:14:59.342Z,57.50
2022-10-15T06:18:07.172Z,57.50
2022-10-15T06:21:16.401Z,57.30
2022-10-15T06:24:24.473Z,57.60
2022-10-15T06:27:33.682Z,57.70
2022-10-15T06:30:41.808Z,58.30
2022-10-15T06:33:49.743Z,58.30
2022-10-15T06:36:59.132Z,58.40
2022-10-15T06:40:08.208Z,58.50
2022-10-15T06:43:23.539Z,58.60
2022-10-15T06:46:31.660Z,58.30
2022-10-15T06:49:39.580Z,58.40
2022-10-15T06:52:48.857Z,58.10
2022-10-15T06:55:58.115Z,58.00
2022-10-15T06:59:06.561Z,58.20
2022-10-15T07:02:14.620Z,58.20
2022-10-15T07:05:22.609Z,58.50
2022-10-15T07:08:32.054Z,58.40
2022-10-15T07:11:39.939Z,58.40
2022-10-15T07:14:48.118Z,58.30
2022-10-15T07:17:56.690Z,58.90
2022-10-15T07:21:04.854Z,58.50
2022-10-15T07:24:14.397Z,59.30
2022-10-15T07:27:22.578Z,59.80
2022-10-15T07:30:32.820Z,60.60
2022-10-15T07:33:40.813Z,59.70
2022-10-15T07:36:48.982Z,59.80
2022-10-15T07:39:58.687Z,60.10
2022-10-15T07:43:06.917Z,60.10
2022-10-15T07:46:14.899Z,60.30
2022-10-15T07:49:23.205Z,60.50
2022-10-15T07:52:32.304Z,60.70
2022-10-15T07:55:41.577Z,60.40
2022-10-15T07:58:51.966Z,60.20
2022-10-15T08:02:00.265Z,60.10
2022-10-15T08:05:08.759Z,59.90
2022-10-15T08:08:16.547Z,59.70
2022-10-15T08:11:25.639Z,59.30
2022-10-15T08:14:33.562Z,59.20
2022-10-15T08:17:41.485Z,59.10
2022-10-15T08:20:51.047Z,59.00
2022-10-15T08:24:00.704Z,58.90
2022-10-15T08:27:15.702Z,59.50
2022-10-15T08:30:23.658Z,59.30
2022-10-15T08:33:31.404Z,58.80
2022-10-15T08:36:39.478Z,58.80
2022-10-15T08:39:47.673Z,58.90
2022-10-15T08:42:57.026Z,58.90
2022-10-15T08:46:07.130Z,59.40
2022-10-15T08:49:17.713Z,59.80
2022-10-15T08:52:26.494Z,59.50
2022-10-15T08:55:36.950Z,59.10
2022-10-15T08:58:47.540Z,59.10
2022-10-15T09:01:56.648Z,59.70
2022-10-15T09:05:07.656Z,59.50
2022-10-15T09:08:21.668Z,60.20
2022-10-15T09:11:36.234Z,61.00
2022-10-15T09:14:45.818Z,61.20
2022-10-15T09:17:54.004Z,61.60
2022-10-15T09:21:04.620Z,61.30
2022-10-15T09:24:13.410Z,61.40
2022-10-15T09:27:26.011Z,61.70
2022-10-15T09:30:37.915Z,61.50
2022-10-15T09:33:47.760Z,61.60
2022-10-15T09:36:57.958Z,61.10
2022-10-15T09:40:21.732Z,61.60
2022-10-15T09:43:35.255Z,62.00
2022-10-15T09:46:46.251Z,61.60
2022-10-15T09:49:54.272Z,61.40
2022-10-15T09:53:07.159Z,61.20
2022-10-15T09:56:16.279Z,61.40
2022-10-15T09:59:24.620Z,61.30
2022-10-15T10:02:34.106Z,60.80
2022-10-15T10:05:45.880Z,60.80
2022-10-15T10:08:55.457Z,60.50
2022-10-15T10:12:04.937Z,60.30
2022-10-15T10:15:29.956Z,60.30
2022-10-15T10:18:39.260Z,60.20
2022-10-15T10:21:47.225Z,60.20
2022-10-15T10:24:55.379Z,60.20
2022-10-15T10:28:16.867Z,60.30
2022-10-15T10:31:28.519Z,61.10
2022-10-15T10:34:37.749Z,59.90
2022-10-15T10:37:45.789Z,59.90
2022-10-15T10:40:55.259Z,59.90
2022-10-15T10:44:03.026Z,59.80
2022-10-15T10:47:14.144Z,59.70
2022-10-15T10:50:32.465Z,59.70
2022-10-15T10:53:51.924Z,59.80
2022-10-15T10:57:00.612Z,59.70
2022-10-15T11:00:09.800Z,59.70
2022-10-15T11:03:24.222Z,59.60
2022-10-15T11:06:50.872Z,59.50
2022-10-15T11:10:02.153Z,59.40
2022-10-15T11:13:20.615Z,59.40
2022-10-15T11:16:34.012Z,59.30
2022-10-15T11:23:25.023Z,59.40
2022-10-15T11:26:58.802Z,59.30
2022-10-15T11:30:30.061Z,59.00
2022-10-15T11:33:46.647Z,59.00
2022-10-15T11:37:01.175Z,59.00
2022-10-15T11:40:20.922Z,59.00
2022-10-15T11:43:39.169Z,58.90
2022-10-15T11:46:48.610Z,58.80
2022-10-15T11:50:04.567Z,58.80
2022-10-15T11:53:27.617Z,58.70
2022-10-15T11:56:39.017Z,58.70
2022-10-15T11:59:48.641Z,58.60
2022-10-15T12:02:56.512Z,58.60
2022-10-15T12:06:06.323Z,58.50
2022-10-15T12:09:16.214Z,58.50
2022-10-15T12:12:32.401Z,58.50
2022-10-15T12:15:42.864Z,58.50
2022-10-15T12:18:53.684Z,58.40
2022-10-15T12:22:10.699Z,58.30
2022-10-15T12:25:40.669Z,58.30
2022-10-15T12:28:51.017Z,58.30
2022-10-15T12:31:59.031Z,58.30
2022-10-15T12:35:09.161Z,58.30
2022-10-15T12:38:22.977Z,58.20
2022-10-15T12:41:38.411Z,58.20
2022-10-15T12:44:48.941Z,58.10
2022-10-15T12:47:57.406Z,58.10
2022-10-15T12:51:35.260Z,58.10
2022-10-15T12:54:43.561Z,58.00
2022-10-15T12:57:57.969Z,58.10
2022-10-15T13:01:08.668Z,58.00
2022-10-15T13:04:16.575Z,58.00
2022-10-15T13:07:25.268Z,57.90
2022-10-15T13:10:35.528Z,57.90
2022-10-15T13:13:43.503Z,57.90
2022-10-15T13:16:53.023Z,57.80
2022-10-15T13:20:04.483Z,57.80
2022-10-15T13:23:30.235Z,57.80
2022-10-15T13:26:38.770Z,57.80
2022-10-15T13:29:57.599Z,57.80
2022-10-15T13:33:07.211Z,57.80
2022-10-15T13:36:19.717Z,57.70
2022-10-15T13:42:59.385Z,57.60
2022-10-15T13:46:07.377Z,57.60
2022-10-15T13:49:16.369Z,57.60
2022-10-15T13:52:24.724Z,57.60
2022-10-15T13:55:36.309Z,57.50
2022-10-15T13:58:44.138Z,57.70
2022-10-15T14:01:53.889Z,58.00
2022-10-15T14:07:57.510Z,57.70
2022-10-15T14:11:05.785Z,57.60
2022-10-15T14:14:33.578Z,57.60
2022-10-15T14:17:41.487Z,57.60
2022-10-15T14:20:49.406Z,57.60
2022-10-15T14:24:06.254Z,57.60
2022-10-15T14:27:15.518Z,57.50
2022-10-15T14:30:26.971Z,57.50
2022-10-15T14:33:45.196Z,57.70
2022-10-15T14:36:53.204Z,57.70
2022-10-15T14:40:14.627Z,57.60
2022-10-15T14:43:22.570Z,57.60
2022-10-15T14:46:37.403Z,57.60
2022-10-15T14:49:45.394Z,57.60
2022-10-15T14:52:54.153Z,57.60
2022-10-15T14:56:05.409Z,57.60
2022-10-15T14:59:14.711Z,57.60
2022-10-15T15:02:24.075Z,58.00
2022-10-15T15:05:32.128Z,58.00
2022-10-15T15:08:40.011Z,58.30
2022-10-15T15:11:49.588Z,58.10
2022-10-15T15:14:57.429Z,58.10
2022-10-15T15:18:05.602Z,57.90
2022-10-15T15:21:16.282Z,57.90
2022-10-15T15:24:24.466Z,57.80
2022-10-15T15:27:37.129Z,57.90
2022-10-15T15:30:45.505Z,57.70
2022-10-15T15:33:53.500Z,57.80
2022-10-15T15:37:01.719Z,57.70
2022-10-15T15:40:10.807Z,57.70
2022-10-15T15:43:20.155Z,57.60
2022-10-15T15:46:28.316Z,57.70
2022-10-15T15:49:36.542Z,58.60
2022-10-15T15:52:44.511Z,57.60
2022-10-15T15:55:52.812Z,57.50
2022-10-15T15:59:02.364Z,57.20
2022-10-15T16:02:11.405Z,57.20
2022-10-15T16:05:19.689Z,57.00
2022-10-15T16:08:27.598Z,57.20
2022-10-15T16:11:35.927Z,57.30
2022-10-15T16:14:45.316Z,57.40
2022-10-15T16:17:53.365Z,57.50
2022-10-15T16:21:01.353Z,57.60
2022-10-15T16:24:09.330Z,57.70
2022-10-15T16:27:17.341Z,57.80
2022-10-15T16:30:26.762Z,57.80
2022-10-15T16:33:34.749Z,57.90
2022-10-15T16:36:42.540Z,57.90
2022-10-15T16:39:50.256Z,58.10
2022-10-15T16:42:58.274Z,58.50
2022-10-15T16:46:07.990Z,59.10
2022-10-15T16:49:15.826Z,59.30
2022-10-15T16:52:24.265Z,59.50
2022-10-15T16:55:33.302Z,59.30
2022-10-15T16:58:41.342Z,59.20
2022-10-15T17:01:50.989Z,59.20
2022-10-15T17:04:58.764Z,59.10
2022-10-15T17:08:09.620Z,59.10
2022-10-15T17:11:21.904Z,58.90
2022-10-15T17:14:30.085Z,59.00
2022-10-15T17:17:39.551Z,59.10
2022-10-15T17:20:47.667Z,59.10
2022-10-15T17:23:56.903Z,58.80
2022-10-15T17:27:05.257Z,59.00
2022-10-15T17:30:13.483Z,59.10
2022-10-15T17:33:22.979Z,60.10
2022-10-15T17:36:32.254Z,59.70
2022-10-15T17:39:40.466Z,59.60
2022-10-15T17:42:48.233Z,59.60
2022-10-15T17:46:06.387Z,60.00
2022-10-15T17:49:18.567Z,59.70
2022-10-15T17:52:26.553Z,59.90
2022-10-15T17:55:34.312Z,59.90
2022-10-15T17:58:43.938Z,60.10
2022-10-15T18:01:58.256Z,60.40
2022-10-15T18:05:08.752Z,60.40
2022-10-15T18:08:18.273Z,60.80
2022-10-15T18:11:27.541Z,60.60
2022-10-15T18:14:35.532Z,60.70
2022-10-15T18:17:43.905Z,60.70
2022-10-15T18:20:53.140Z,60.80
2022-10-15T18:24:00.920Z,60.70
2022-10-15T18:27:09.123Z,60.70
2022-10-15T18:30:17.246Z,60.90
2022-10-15T18:33:25.106Z,61.10
2022-10-15T18:36:34.484Z,60.60
2022-10-15T18:39:42.618Z,60.50
2022-10-15T18:42:50.426Z,60.40
2022-10-15T18:46:03.039Z,60.50
2022-10-15T18:49:11.218Z,60.30
2022-10-15T18:52:34.910Z,60.30
2022-10-15T18:55:46.455Z,60.20
2022-10-15T18:58:54.551Z,60.10
2022-10-15T19:02:02.591Z,60.10
2022-10-15T19:05:11.626Z,60.00
2022-10-15T19:08:21.525Z,59.90
2022-10-15T19:11:29.777Z,59.80
2022-10-15T19:14:39.407Z,60.00
2022-10-15T19:17:48.375Z,59.80
2022-10-15T19:20:56.477Z,59.60
2022-10-15T19:24:06.160Z,59.50
2022-10-15T19:27:14.000Z,59.50
2022-10-15T19:30:22.119Z,59.30
2022-10-15T19:33:30.414Z,59.20
2022-10-15T19:36:40.168Z,59.30
2022-10-15T19:39:49.476Z,59.20
2022-10-15T19:42:57.330Z,59.20
2022-10-15T19:46:05.446Z,59.00
2022-10-15T19:49:16.134Z,58.90
2022-10-15T19:52:24.078Z,58.70
2022-10-15T19:55:34.049Z,58.80
2022-10-15T19:58:42.241Z,59.00
2022-10-15T20:01:50.359Z,58.70
2022-10-15T20:05:00.360Z,58.70
2022-10-15T20:08:09.433Z,58.80
2022-10-15T20:11:19.732Z,58.60
2022-10-15T20:14:28.002Z,58.60
2022-10-15T20:17:36.329Z,58.50
2022-10-15T20:20:45.917Z,58.50
2022-10-15T20:23:53.633Z,59.00
2022-10-15T20:27:02.902Z,58.40
2022-10-15T20:30:12.129Z,58.30
2022-10-15T20:33:19.972Z,58.30
2022-10-15T20:36:28.377Z,58.20
2022-10-15T20:39:36.062Z,58.20
2022-10-15T20:42:45.534Z,58.20
2022-10-15T20:45:54.765Z,58.10
2022-10-15T20:49:07.795Z,58.10
2022-10-15T20:52:16.850Z,58.00
2022-10-15T20:55:25.000Z,58.00
2022-10-15T20:58:34.200Z,58.00
2022-10-15T21:01:42.095Z,58.00
2022-10-15T21:04:52.641Z,58.00
2022-10-15T21:08:00.542Z,57.90
2022-10-15T21:11:09.359Z,57.90
2022-10-15T21:14:18.794Z,57.90
2022-10-15T21:17:26.985Z,57.90
2022-10-15T21:20:35.230Z,58.20
2022-10-15T21:23:43.472Z,58.00
2022-10-15T21:26:51.532Z,58.00
2022-10-15T21:30:00.877Z,57.90
2022-10-15T21:33:09.076Z,57.90
2022-10-15T21:36:21.705Z,57.90
2022-10-15T21:39:29.752Z,57.90
2022-10-15T21:42:37.880Z,57.90
2022-10-15T21:45:47.659Z,57.90
2022-10-15T21:48:55.902Z,57.90
2022-10-15T21:52:03.997Z,58.00
2022-10-15T21:55:11.746Z,58.00
2022-10-15T21:58:19.862Z,57.90
2022-10-15T22:01:30.964Z,58.00
2022-10-15T22:04:39.190Z,58.00
2022-10-15T22:07:47.236Z,58.00
2022-10-15T22:10:55.493Z,57.90
2022-10-15T22:14:04.585Z,57.90
2022-10-15T22:17:15.442Z,58.00
2022-10-15T22:20:23.959Z,58.00
2022-10-15T22:23:31.750Z,58.00
2022-10-15T22:26:40.470Z,58.00
2022-10-15T22:32:57.603Z,58.00
2022-10-15T22:36:07.427Z,58.00
2022-10-15T22:39:16.128Z,57.90
2022-10-15T22:42:24.383Z,58.20
2022-10-15T22:45:32.738Z,58.60
2022-10-15T22:48:42.688Z,58.50
2022-10-15T22:51:51.078Z,58.70
2022-10-15T22:54:59.165Z,58.80
2022-10-15T22:58:07.230Z,58.80
2022-10-15T23:01:16.185Z,59.40
2022-10-15T23:04:25.795Z,58.80
2022-10-15T23:07:33.846Z,58.80
2022-10-15T23:10:41.846Z,58.80
2022-10-15T23:13:53.241Z,58.70
2022-10-15T23:17:01.168Z,58.70
2022-10-15T23:20:12.305Z,58.70
2022-10-15T23:23:20.266Z,58.70
2022-10-15T23:29:41.298Z,58.60
2022-10-15T23:32:49.023Z,58.60
2022-10-15T23:36:02.697Z,58.50
2022-10-15T23:39:13.495Z,58.50
2022-10-15T23:42:21.629Z,58.50
2022-10-15T23:45:29.509Z,58.40
2022-10-15T23:48:37.601Z,58.40
2022-10-15T23:51:47.042Z,58.30
2022-10-15T23:54:55.048Z,58.40
2022-10-15T23:58:02.920Z,58.30
